sensor_id;sensor_type;location;lat;lon;timestamp;P1;durP1;ratioP1;P2;durP2;ratioP2
45684;SDS011;46836;48.388;16.210;2023-02-18T00:00:29;1.42;;;1.00;;
45684;SDS011;46836;48.388;16.210;2023-02-18T00:02:56;2.00;;;0.90;;
45684;SDS011;46836;48.388;16.210;2023-02-18T00:05:23;1.75;;;1.20;;
45684;SDS011;46836;48.388;16.210;2023-02-18T00:07:51;1.35;;;0.80;;
45684;SDS011;46836;48.388;16.210;2023-02-18T00:10:19;1.42;;;1.00;;
45684;SDS011;46836;48.388;16.210;2023-02-18T00:12:46;3.70;;;0.98;;
45684;SDS011;46836;48.388;16.210;2023-02-18T00:15:13;1.30;;;0.70;;
45684;SDS011;46836;48.388;16.210;2023-02-18T00:17:40;1.10;;;0.90;;
45684;SDS011;46836;48.388;16.210;2023-02-18T00:20:07;1.10;;;1.00;;
45684;SDS011;46836;48.388;16.210;2023-02-18T00:22:34;0.75;;;0.75;;
45684;SDS011;46836;48.388;16.210;2023-02-18T00:25:02;1.58;;;0.90;;
45684;SDS011;46836;48.388;16.210;2023-02-18T00:27:29;1.08;;;0.98;;
45684;SDS011;46836;48.388;16.210;2023-02-18T00:29:56;1.25;;;0.90;;
45684;SDS011;46836;48.388;16.210;2023-02-18T00:32:24;2.08;;;1.23;;
45684;SDS011;46836;48.388;16.210;2023-02-18T00:34:51;2.13;;;1.02;;
45684;SDS011;46836;48.388;16.210;2023-02-18T00:37:18;0.90;;;0.90;;
45684;SDS011;46836;48.388;16.210;2023-02-18T00:39:45;0.95;;;0.80;;
45684;SDS011;46836;48.388;16.210;2023-02-18T00:42:12;1.75;;;0.93;;
45684;SDS011;46836;48.388;16.210;2023-02-18T00:44:39;1.17;;;1.08;;
45684;SDS011;46836;48.388;16.210;2023-02-18T00:47:07;3.08;;;1.08;;
45684;SDS011;46836;48.388;16.210;2023-02-18T00:49:34;0.90;;;0.90;;
45684;SDS011;46836;48.388;16.210;2023-02-18T00:52:01;2.35;;;1.00;;
45684;SDS011;46836;48.388;16.210;2023-02-18T00:54:28;2.08;;;1.10;;
45684;SDS011;46836;48.388;16.210;2023-02-18T00:56:55;0.82;;;0.70;;
45684;SDS011;46836;48.388;16.210;2023-02-18T00:59:22;1.00;;;0.80;;
45684;SDS011;46836;48.388;16.210;2023-02-18T01:01:49;1.00;;;0.90;;
45684;SDS011;46836;48.388;16.210;2023-02-18T01:04:16;0.70;;;0.70;;
45684;SDS011;46836;48.388;16.210;2023-02-18T01:06:43;2.00;;;0.93;;
45684;SDS011;46836;48.388;16.210;2023-02-18T01:09:10;1.55;;;1.00;;
45684;SDS011;46836;48.388;16.210;2023-02-18T01:11:37;1.25;;;1.15;;
45684;SDS011;46836;48.388;16.210;2023-02-18T01:14:05;0.90;;;0.77;;
45684;SDS011;46836;48.388;16.210;2023-02-18T01:16:32;5.32;;;1.27;;
45684;SDS011;46836;48.388;16.210;2023-02-18T01:18:59;1.00;;;0.90;;
45684;SDS011;46836;48.388;16.210;2023-02-18T01:21:26;1.05;;;0.90;;
45684;SDS011;46836;48.388;16.210;2023-02-18T01:23:53;2.47;;;0.80;;
45684;SDS011;46836;48.388;16.210;2023-02-18T01:26:20;0.82;;;0.60;;
45684;SDS011;46836;48.388;16.210;2023-02-18T01:28:47;0.65;;;0.65;;
45684;SDS011;46836;48.388;16.210;2023-02-18T01:31:15;0.70;;;0.70;;
45684;SDS011;46836;48.388;16.210;2023-02-18T01:33:42;0.80;;;0.70;;
45684;SDS011;46836;48.388;16.210;2023-02-18T01:36:10;0.98;;;0.80;;
45684;SDS011;46836;48.388;16.210;2023-02-18T01:38:38;1.58;;;0.80;;
45684;SDS011;46836;48.388;16.210;2023-02-18T01:41:05;1.45;;;0.70;;
45684;SDS011;46836;48.388;16.210;2023-02-18T01:43:33;2.05;;;1.05;;
45684;SDS011;46836;48.388;16.210;2023-02-18T01:46:11;1.95;;;0.80;;
45684;SDS011;46836;48.388;16.210;2023-02-18T01:48:50;0.70;;;0.70;;
45684;SDS011;46836;48.388;16.210;2023-02-18T01:51:31;0.80;;;0.65;;
45684;SDS011;46836;48.388;16.210;2023-02-18T01:59:53;0.90;;;0.60;;
45684;SDS011;46836;48.388;16.210;2023-02-18T02:02:26;0.50;;;0.50;;
45684;SDS011;46836;48.388;16.210;2023-02-18T02:04:54;0.60;;;0.60;;
45684;SDS011;46836;48.388;16.210;2023-02-18T02:07:23;2.50;;;0.45;;
45684;SDS011;46836;48.388;16.210;2023-02-18T02:09:52;0.80;;;0.60;;
45684;SDS011;46836;48.388;16.210;2023-02-18T02:20:36;0.82;;;0.57;;
45684;SDS011;46836;48.388;16.210;2023-02-18T02:34:56;1.35;;;0.55;;
45684;SDS011;46836;48.388;16.210;2023-02-18T02:40:23;0.50;;;0.50;;
45684;SDS011;46836;48.388;16.210;2023-02-18T02:54:32;1.02;;;0.50;;
45684;SDS011;46836;48.388;16.210;2023-02-18T02:57:06;0.85;;;0.40;;
45684;SDS011;46836;48.388;16.210;2023-02-18T02:59:35;0.50;;;0.50;;
45684;SDS011;46836;48.388;16.210;2023-02-18T03:08:32;6.05;;;0.68;;
45684;SDS011;46836;48.388;16.210;2023-02-18T03:11:17;0.80;;;0.60;;
45684;SDS011;46836;48.388;16.210;2023-02-18T03:13:50;0.70;;;0.40;;
45684;SDS011;46836;48.388;16.210;2023-02-18T03:16:37;0.50;;;0.40;;
45684;SDS011;46836;48.388;16.210;2023-02-18T03:19:13;0.50;;;0.47;;
45684;SDS011;46836;48.388;16.210;2023-02-18T03:21:51;0.50;;;0.50;;
45684;SDS011;46836;48.388;16.210;2023-02-18T03:24:26;0.85;;;0.40;;
45684;SDS011;46836;48.388;16.210;2023-02-18T03:26:55;0.60;;;0.50;;
45684;SDS011;46836;48.388;16.210;2023-02-18T03:29:26;1.75;;;0.60;;
45684;SDS011;46836;48.388;16.210;2023-02-18T03:31:56;0.40;;;0.30;;
45684;SDS011;46836;48.388;16.210;2023-02-18T03:34:28;0.60;;;0.60;;
45684;SDS011;46836;48.388;16.210;2023-02-18T03:36:58;0.60;;;0.50;;
45684;SDS011;46836;48.388;16.210;2023-02-18T03:39:27;0.65;;;0.50;;
45684;SDS011;46836;48.388;16.210;2023-02-18T03:41:56;0.70;;;0.50;;
45684;SDS011;46836;48.388;16.210;2023-02-18T03:44:24;0.88;;;0.70;;
45684;SDS011;46836;48.388;16.210;2023-02-18T03:46:51;0.98;;;0.50;;
45684;SDS011;46836;48.388;16.210;2023-02-18T03:49:19;1.35;;;0.60;;
45684;SDS011;46836;48.388;16.210;2023-02-18T03:51:46;1.88;;;0.68;;
45684;SDS011;46836;48.388;16.210;2023-02-18T03:54:13;0.70;;;0.60;;
45684;SDS011;46836;48.388;16.210;2023-02-18T03:56:41;0.50;;;0.50;;
45684;SDS011;46836;48.388;16.210;2023-02-18T03:59:09;0.90;;;0.80;;
45684;SDS011;46836;48.388;16.210;2023-02-18T04:01:37;1.48;;;0.70;;
45684;SDS011;46836;48.388;16.210;2023-02-18T04:04:05;0.85;;;0.60;;
45684;SDS011;46836;48.388;16.210;2023-02-18T04:06:32;3.05;;;0.85;;
45684;SDS011;46836;48.388;16.210;2023-02-18T04:08:59;0.80;;;0.60;;
45684;SDS011;46836;48.388;16.210;2023-02-18T04:11:27;0.77;;;0.50;;
45684;SDS011;46836;48.388;16.210;2023-02-18T04:13:55;0.80;;;0.50;;
45684;SDS011;46836;48.388;16.210;2023-02-18T04:16:22;0.50;;;0.47;;
45684;SDS011;46836;48.388;16.210;2023-02-18T04:18:49;1.00;;;0.90;;
45684;SDS011;46836;48.388;16.210;2023-02-18T04:21:16;0.60;;;0.50;;
45684;SDS011;46836;48.388;16.210;2023-02-18T04:23:43;0.70;;;0.70;;
45684;SDS011;46836;48.388;16.210;2023-02-18T04:26:10;0.70;;;0.70;;
45684;SDS011;46836;48.388;16.210;2023-02-18T04:28:37;0.82;;;0.70;;
45684;SDS011;46836;48.388;16.210;2023-02-18T04:31:04;0.98;;;0.60;;
45684;SDS011;46836;48.388;16.210;2023-02-18T04:33:32;0.50;;;0.50;;
45684;SDS011;46836;48.388;16.210;2023-02-18T04:35:59;0.60;;;0.55;;
45684;SDS011;46836;48.388;16.210;2023-02-18T04:38:26;0.73;;;0.60;;
45684;SDS011;46836;48.388;16.210;2023-02-18T04:40:53;0.93;;;0.80;;
45684;SDS011;46836;48.388;16.210;2023-02-18T04:43:20;0.60;;;0.52;;
45684;SDS011;46836;48.388;16.210;2023-02-18T04:45:47;0.50;;;0.50;;
45684;SDS011;46836;48.388;16.210;2023-02-18T04:48:14;0.73;;;0.50;;
45684;SDS011;46836;48.388;16.210;2023-02-18T04:50:42;0.88;;;0.50;;
45684;SDS011;46836;48.388;16.210;2023-02-18T04:53:09;0.55;;;0.55;;
45684;SDS011;46836;48.388;16.210;2023-02-18T04:55:36;0.52;;;0.52;;
45684;SDS011;46836;48.388;16.210;2023-02-18T04:58:04;1.00;;;0.50;;
45684;SDS011;46836;48.388;16.210;2023-02-18T05:00:31;1.20;;;0.80;;
45684;SDS011;46836;48.388;16.210;2023-02-18T05:02:58;2.25;;;0.52;;
45684;SDS011;46836;48.388;16.210;2023-02-18T05:05:25;0.85;;;0.50;;
45684;SDS011;46836;48.388;16.210;2023-02-18T05:07:52;1.20;;;0.70;;
45684;SDS011;46836;48.388;16.210;2023-02-18T05:10:19;0.60;;;0.52;;
45684;SDS011;46836;48.388;16.210;2023-02-18T05:12:46;0.88;;;0.70;;
45684;SDS011;46836;48.388;16.210;2023-02-18T05:15:13;0.93;;;0.50;;
45684;SDS011;46836;48.388;16.210;2023-02-18T05:17:41;0.82;;;0.63;;
45684;SDS011;46836;48.388;16.210;2023-02-18T05:20:08;1.00;;;0.93;;
45684;SDS011;46836;48.388;16.210;2023-02-18T05:22:35;0.50;;;0.40;;
45684;SDS011;46836;48.388;16.210;2023-02-18T05:25:03;0.60;;;0.60;;
45684;SDS011;46836;48.388;16.210;2023-02-18T05:27:31;4.13;;;2.92;;
45684;SDS011;46836;48.388;16.210;2023-02-18T05:29:58;0.93;;;0.88;;
45684;SDS011;46836;48.388;16.210;2023-02-18T05:32:25;0.50;;;0.40;;
45684;SDS011;46836;48.388;16.210;2023-02-18T05:34:52;0.60;;;0.60;;
45684;SDS011;46836;48.388;16.210;2023-02-18T05:37:19;0.70;;;0.60;;
45684;SDS011;46836;48.388;16.210;2023-02-18T05:39:46;1.17;;;0.70;;
45684;SDS011;46836;48.388;16.210;2023-02-18T05:42:13;0.73;;;0.50;;
45684;SDS011;46836;48.388;16.210;2023-02-18T05:44:41;0.60;;;0.50;;
45684;SDS011;46836;48.388;16.210;2023-02-18T05:47:09;0.68;;;0.40;;
45684;SDS011;46836;48.388;16.210;2023-02-18T05:49:38;0.60;;;0.50;;
45684;SDS011;46836;48.388;16.210;2023-02-18T05:52:06;0.60;;;0.40;;
45684;SDS011;46836;48.388;16.210;2023-02-18T05:54:35;0.65;;;0.65;;
45684;SDS011;46836;48.388;16.210;2023-02-18T05:57:03;1.45;;;0.50;;
45684;SDS011;46836;48.388;16.210;2023-02-18T05:59:31;0.65;;;0.47;;
45684;SDS011;46836;48.388;16.210;2023-02-18T06:01:58;0.50;;;0.50;;
45684;SDS011;46836;48.388;16.210;2023-02-18T06:04:26;0.90;;;0.55;;
45684;SDS011;46836;48.388;16.210;2023-02-18T06:06:53;0.60;;;0.60;;
45684;SDS011;46836;48.388;16.210;2023-02-18T06:09:20;0.80;;;0.60;;
45684;SDS011;46836;48.388;16.210;2023-02-18T06:11:48;3.22;;;0.70;;
45684;SDS011;46836;48.388;16.210;2023-02-18T06:14:15;1.10;;;0.70;;
45684;SDS011;46836;48.388;16.210;2023-02-18T06:16:42;0.88;;;0.65;;
45684;SDS011;46836;48.388;16.210;2023-02-18T06:19:09;0.40;;;0.40;;
45684;SDS011;46836;48.388;16.210;2023-02-18T06:21:36;0.95;;;0.40;;
45684;SDS011;46836;48.388;16.210;2023-02-18T06:24:04;2.58;;;0.57;;
45684;SDS011;46836;48.388;16.210;2023-02-18T06:26:31;0.77;;;0.60;;
45684;SDS011;46836;48.388;16.210;2023-02-18T06:28:59;0.60;;;0.50;;
45684;SDS011;46836;48.388;16.210;2023-02-18T06:31:26;2.03;;;0.68;;
45684;SDS011;46836;48.388;16.210;2023-02-18T06:33:54;0.70;;;0.70;;
45684;SDS011;46836;48.388;16.210;2023-02-18T06:36:21;1.45;;;0.40;;
45684;SDS011;46836;48.388;16.210;2023-02-18T06:38:48;0.63;;;0.47;;
45684;SDS011;46836;48.388;16.210;2023-02-18T06:41:15;0.50;;;0.47;;
45684;SDS011;46836;48.388;16.210;2023-02-18T06:43:43;1.60;;;0.50;;
45684;SDS011;46836;48.388;16.210;2023-02-18T06:46:10;3.00;;;0.90;;
45684;SDS011;46836;48.388;16.210;2023-02-18T06:48:37;1.40;;;0.50;;
45684;SDS011;46836;48.388;16.210;2023-02-18T06:51:04;0.50;;;0.50;;
45684;SDS011;46836;48.388;16.210;2023-02-18T06:53:31;4.32;;;0.52;;
45684;SDS011;46836;48.388;16.210;2023-02-18T06:55:58;1.00;;;0.90;;
45684;SDS011;46836;48.388;16.210;2023-02-18T06:58:25;1.50;;;0.50;;
45684;SDS011;46836;48.388;16.210;2023-02-18T07:00:52;1.35;;;0.40;;
45684;SDS011;46836;48.388;16.210;2023-02-18T07:03:20;0.50;;;0.45;;
45684;SDS011;46836;48.388;16.210;2023-02-18T07:05:47;0.50;;;0.40;;
45684;SDS011;46836;48.388;16.210;2023-02-18T07:08:14;0.50;;;0.50;;
45684;SDS011;46836;48.388;16.210;2023-02-18T07:10:41;2.05;;;0.50;;
45684;SDS011;46836;48.388;16.210;2023-02-18T07:13:08;2.35;;;0.50;;
45684;SDS011;46836;48.388;16.210;2023-02-18T07:15:36;0.60;;;0.47;;
45684;SDS011;46836;48.388;16.210;2023-02-18T07:18:03;0.60;;;0.40;;
45684;SDS011;46836;48.388;16.210;2023-02-18T07:20:30;0.50;;;0.40;;
45684;SDS011;46836;48.388;16.210;2023-02-18T07:22:57;0.40;;;0.40;;
45684;SDS011;46836;48.388;16.210;2023-02-18T07:25:24;2.08;;;0.70;;
45684;SDS011;46836;48.388;16.210;2023-02-18T07:27:51;1.50;;;0.73;;
45684;SDS011;46836;48.388;16.210;2023-02-18T07:30:19;6.28;;;0.63;;
45684;SDS011;46836;48.388;16.210;2023-02-18T07:32:46;0.50;;;0.40;;
45684;SDS011;46836;48.388;16.210;2023-02-18T07:35:14;2.05;;;0.40;;
45684;SDS011;46836;48.388;16.210;2023-02-18T07:37:43;1.65;;;0.40;;
45684;SDS011;46836;48.388;16.210;2023-02-18T07:40:12;0.50;;;0.40;;
45684;SDS011;46836;48.388;16.210;2023-02-18T07:42:41;0.73;;;0.40;;
45684;SDS011;46836;48.388;16.210;2023-02-18T07:45:09;2.45;;;0.45;;
45684;SDS011;46836;48.388;16.210;2023-02-18T07:47:37;1.75;;;0.50;;
45684;SDS011;46836;48.388;16.210;2023-02-18T07:50:05;0.50;;;0.40;;
45684;SDS011;46836;48.388;16.210;2023-02-18T07:52:33;8.63;;;0.70;;
45684;SDS011;46836;48.388;16.210;2023-02-18T07:55:00;3.65;;;0.40;;
45684;SDS011;46836;48.388;16.210;2023-02-18T07:57:27;3.90;;;0.40;;
45684;SDS011;46836;48.388;16.210;2023-02-18T07:59:54;2.20;;;0.90;;
45684;SDS011;46836;48.388;16.210;2023-02-18T08:02:22;1.25;;;0.40;;
45684;SDS011;46836;48.388;16.210;2023-02-18T08:04:50;2.63;;;0.50;;
45684;SDS011;46836;48.388;16.210;2023-02-18T08:07:17;0.60;;;0.40;;
45684;SDS011;46836;48.388;16.210;2023-02-18T08:09:47;0.95;;;0.60;;
45684;SDS011;46836;48.388;16.210;2023-02-18T08:12:16;0.40;;;0.30;;
45684;SDS011;46836;48.388;16.210;2023-02-18T08:14:43;0.50;;;0.30;;
45684;SDS011;46836;48.388;16.210;2023-02-18T08:17:10;0.52;;;0.30;;
45684;SDS011;46836;48.388;16.210;2023-02-18T08:19:37;0.40;;;0.30;;
45684;SDS011;46836;48.388;16.210;2023-02-18T08:22:04;1.15;;;0.40;;
45684;SDS011;46836;48.388;16.210;2023-02-18T08:24:32;1.10;;;0.38;;
45684;SDS011;46836;48.388;16.210;2023-02-18T08:26:59;2.47;;;0.47;;
45684;SDS011;46836;48.388;16.210;2023-02-18T08:29:27;0.60;;;0.30;;
45684;SDS011;46836;48.388;16.210;2023-02-18T08:31:55;0.60;;;0.40;;
45684;SDS011;46836;48.388;16.210;2023-02-18T08:34:23;0.87;;;0.50;;
45684;SDS011;46836;48.388;16.210;2023-02-18T08:36:51;0.50;;;0.30;;
45684;SDS011;46836;48.388;16.210;2023-02-18T08:39:18;2.63;;;0.40;;
45684;SDS011;46836;48.388;16.210;2023-02-18T08:41:45;2.00;;;0.40;;
45684;SDS011;46836;48.388;16.210;2023-02-18T08:44:12;1.73;;;0.33;;
45684;SDS011;46836;48.388;16.210;2023-02-18T08:46:39;2.00;;;0.50;;
45684;SDS011;46836;48.388;16.210;2023-02-18T08:49:07;0.67;;;0.43;;
45684;SDS011;46836;48.388;16.210;2023-02-18T08:51:34;0.50;;;0.30;;
45684;SDS011;46836;48.388;16.210;2023-02-18T08:54:01;0.50;;;0.40;;
45684;SDS011;46836;48.388;16.210;2023-02-18T08:56:28;0.60;;;0.40;;
45684;SDS011;46836;48.388;16.210;2023-02-18T08:58:57;0.50;;;0.40;;
45684;SDS011;46836;48.388;16.210;2023-02-18T09:01:25;0.50;;;0.30;;
45684;SDS011;46836;48.388;16.210;2023-02-18T09:03:52;2.87;;;0.60;;
45684;SDS011;46836;48.388;16.210;2023-02-18T09:06:19;0.40;;;0.37;;
45684;SDS011;46836;48.388;16.210;2023-02-18T09:08:46;0.70;;;0.47;;
45684;SDS011;46836;48.388;16.210;2023-02-18T09:11:14;0.70;;;0.70;;
45684;SDS011;46836;48.388;16.210;2023-02-18T09:13:42;1.83;;;1.10;;
45684;SDS011;46836;48.388;16.210;2023-02-18T09:16:15;0.80;;;0.80;;
45684;SDS011;46836;48.388;16.210;2023-02-18T09:18:44;1.63;;;0.87;;
45684;SDS011;46836;48.388;16.210;2023-02-18T09:21:13;1.73;;;0.73;;
45684;SDS011;46836;48.388;16.210;2023-02-18T09:23:41;0.80;;;0.80;;
45684;SDS011;46836;48.388;16.210;2023-02-18T09:26:09;1.37;;;1.27;;
45684;SDS011;46836;48.388;16.210;2023-02-18T09:28:39;1.63;;;1.17;;
45684;SDS011;46836;48.388;16.210;2023-02-18T09:31:08;2.67;;;1.47;;
45684;SDS011;46836;48.388;16.210;2023-02-18T09:33:39;1.17;;;1.03;;
45684;SDS011;46836;48.388;16.210;2023-02-18T09:36:10;3.07;;;1.40;;
45684;SDS011;46836;48.388;16.210;2023-02-18T09:38:37;1.43;;;1.33;;
45684;SDS011;46836;48.388;16.210;2023-02-18T09:41:06;1.60;;;1.40;;
45684;SDS011;46836;48.388;16.210;2023-02-18T09:43:42;1.70;;;1.37;;
45684;SDS011;46836;48.388;16.210;2023-02-18T09:46:16;1.10;;;1.10;;
45684;SDS011;46836;48.388;16.210;2023-02-18T09:48:53;1.77;;;1.67;;
45684;SDS011;46836;48.388;16.210;2023-02-18T09:51:21;4.30;;;1.60;;
45684;SDS011;46836;48.388;16.210;2023-02-18T09:53:48;2.83;;;1.53;;
45684;SDS011;46836;48.388;16.210;2023-02-18T09:56:37;2.17;;;1.67;;
45684;SDS011;46836;48.388;16.210;2023-02-18T09:59:05;1.50;;;1.40;;
45684;SDS011;46836;48.388;16.210;2023-02-18T10:01:40;1.83;;;1.57;;
45684;SDS011;46836;48.388;16.210;2023-02-18T10:04:13;3.80;;;1.40;;
45684;SDS011;46836;48.388;16.210;2023-02-18T10:06:52;1.80;;;1.60;;
45684;SDS011;46836;48.388;16.210;2023-02-18T10:09:21;3.37;;;1.70;;
45684;SDS011;46836;48.388;16.210;2023-02-18T10:12:15;1.93;;;1.60;;
45684;SDS011;46836;48.388;16.210;2023-02-18T10:14:47;1.30;;;1.20;;
45684;SDS011;46836;48.388;16.210;2023-02-18T10:17:20;1.80;;;1.70;;
45684;SDS011;46836;48.388;16.210;2023-02-18T10:19:50;1.40;;;1.30;;
45684;SDS011;46836;48.388;16.210;2023-02-18T10:22:20;1.50;;;1.40;;
45684;SDS011;46836;48.388;16.210;2023-02-18T10:24:49;2.90;;;1.67;;
45684;SDS011;46836;48.388;16.210;2023-02-18T10:27:22;1.65;;;1.55;;
45684;SDS011;46836;48.388;16.210;2023-02-18T10:29:58;3.13;;;1.60;;
45684;SDS011;46836;48.388;16.210;2023-02-18T10:32:46;1.50;;;1.40;;
45684;SDS011;46836;48.388;16.210;2023-02-18T10:35:30;1.40;;;1.30;;
45684;SDS011;46836;48.388;16.210;2023-02-18T10:38:13;1.60;;;1.50;;
45684;SDS011;46836;48.388;16.210;2023-02-18T10:52:16;1.73;;;1.50;;
45684;SDS011;46836;48.388;16.210;2023-02-18T10:54:49;2.25;;;1.30;;
45684;SDS011;46836;48.388;16.210;2023-02-18T10:57:22;1.03;;;1.00;;
45684;SDS011;46836;48.388;16.210;2023-02-18T10:59:57;2.27;;;1.43;;
45684;SDS011;46836;48.388;16.210;2023-02-18T11:02:34;1.33;;;1.23;;
45684;SDS011;46836;48.388;16.210;2023-02-18T11:05:05;1.50;;;1.40;;
45684;SDS011;46836;48.388;16.210;2023-02-18T11:07:46;1.93;;;1.30;;
45684;SDS011;46836;48.388;16.210;2023-02-18T11:10:17;2.10;;;1.37;;
45684;SDS011;46836;48.388;16.210;2023-02-18T11:12:49;1.63;;;1.53;;
45684;SDS011;46836;48.388;16.210;2023-02-18T11:15:28;1.40;;;1.30;;
45684;SDS011;46836;48.388;16.210;2023-02-18T11:17:56;2.20;;;1.37;;
45684;SDS011;46836;48.388;16.210;2023-02-18T11:20:37;1.10;;;1.10;;
45684;SDS011;46836;48.388;16.210;2023-02-18T11:25:36;1.97;;;1.47;;
45684;SDS011;46836;48.388;16.210;2023-02-18T11:30:38;1.00;;;0.90;;
45684;SDS011;46836;48.388;16.210;2023-02-18T11:33:10;1.90;;;0.97;;
45684;SDS011;46836;48.388;16.210;2023-02-18T11:35:50;1.37;;;1.27;;
45684;SDS011;46836;48.388;16.210;2023-02-18T11:38:41;3.37;;;1.20;;
45684;SDS011;46836;48.388;16.210;2023-02-18T11:41:18;1.20;;;1.10;;
45684;SDS011;46836;48.388;16.210;2023-02-18T11:43:48;1.13;;;1.03;;
45684;SDS011;46836;48.388;16.210;2023-02-18T11:46:19;0.97;;;0.90;;
45684;SDS011;46836;48.388;16.210;2023-02-18T11:48:48;0.90;;;0.90;;
45684;SDS011;46836;48.388;16.210;2023-02-18T11:51:32;1.10;;;0.70;;
45684;SDS011;46836;48.388;16.210;2023-02-18T11:54:04;0.67;;;0.60;;
45684;SDS011;46836;48.388;16.210;2023-02-18T11:57:03;0.60;;;0.60;;
45684;SDS011;46836;48.388;16.210;2023-02-18T11:59:32;2.37;;;0.60;;
45684;SDS011;46836;48.388;16.210;2023-02-18T12:04:37;0.60;;;0.50;;
45684;SDS011;46836;48.388;16.210;2023-02-18T12:07:29;2.90;;;2.00;;
45684;SDS011;46836;48.388;16.210;2023-02-18T12:10:27;2.63;;;1.70;;
45684;SDS011;46836;48.388;16.210;2023-02-18T12:18:53;2.40;;;1.60;;
45684;SDS011;46836;48.388;16.210;2023-02-18T12:24:37;7.40;;;2.40;;
45684;SDS011;46836;48.388;16.210;2023-02-18T12:32:12;1.13;;;1.00;;
45684;SDS011;46836;48.388;16.210;2023-02-18T12:41:11;1.10;;;0.80;;
45684;SDS011;46836;48.388;16.210;2023-02-18T12:46:35;1.07;;;0.80;;
45684;SDS011;46836;48.388;16.210;2023-02-18T13:00:12;3.80;;;1.10;;
45684;SDS011;46836;48.388;16.210;2023-02-18T13:03:06;3.50;;;2.90;;
45684;SDS011;46836;48.388;16.210;2023-02-18T13:11:20;3.80;;;2.70;;
45684;SDS011;46836;48.388;16.210;2023-02-18T13:16:40;5.00;;;2.50;;
45684;SDS011;46836;48.388;16.210;2023-02-18T13:22:12;1.57;;;1.30;;
45684;SDS011;46836;48.388;16.210;2023-02-18T13:24:41;1.63;;;1.40;;
45684;SDS011;46836;48.388;16.210;2023-02-18T13:27:20;1.53;;;1.30;;
45684;SDS011;46836;48.388;16.210;2023-02-18T13:32:58;2.40;;;1.30;;
45684;SDS011;46836;48.388;16.210;2023-02-18T13:35:36;1.43;;;0.90;;
45684;SDS011;46836;48.388;16.210;2023-02-18T13:41:01;2.87;;;1.50;;
45684;SDS011;46836;48.388;16.210;2023-02-18T13:43:33;1.40;;;1.30;;
45684;SDS011;46836;48.388;16.210;2023-02-18T13:46:14;3.30;;;1.20;;
45684;SDS011;46836;48.388;16.210;2023-02-18T13:49:06;1.33;;;1.23;;
45684;SDS011;46836;48.388;16.210;2023-02-18T13:56:39;1.87;;;0.97;;
45684;SDS011;46836;48.388;16.210;2023-02-18T14:09:51;1.13;;;0.87;;
45684;SDS011;46836;48.388;16.210;2023-02-18T14:14:59;1.77;;;0.90;;
45684;SDS011;46836;48.388;16.210;2023-02-18T14:17:34;2.00;;;1.10;;
45684;SDS011;46836;48.388;16.210;2023-02-18T14:22:43;0.77;;;0.73;;
45684;SDS011;46836;48.388;16.210;2023-02-18T14:27:51;2.03;;;0.97;;
45684;SDS011;46836;48.388;16.210;2023-02-18T14:30:34;2.90;;;0.93;;
45684;SDS011;46836;48.388;16.210;2023-02-18T14:33:11;1.37;;;1.10;;
45684;SDS011;46836;48.388;16.210;2023-02-18T14:35:43;8.33;;;1.13;;
45684;SDS011;46836;48.388;16.210;2023-02-18T14:41:11;2.40;;;0.90;;
45684;SDS011;46836;48.388;16.210;2023-02-18T14:49:17;0.80;;;0.70;;
45684;SDS011;46836;48.388;16.210;2023-02-18T14:51:55;1.17;;;0.80;;
45684;SDS011;46836;48.388;16.210;2023-02-18T14:54:25;1.07;;;0.77;;
45684;SDS011;46836;48.388;16.210;2023-02-18T14:57:17;0.90;;;0.63;;
45684;SDS011;46836;48.388;16.210;2023-02-18T14:59:45;1.70;;;0.83;;
45684;SDS011;46836;48.388;16.210;2023-02-18T15:02:16;0.90;;;0.90;;
45684;SDS011;46836;48.388;16.210;2023-02-18T15:04:49;2.20;;;0.77;;
45684;SDS011;46836;48.388;16.210;2023-02-18T15:07:18;1.23;;;0.80;;
45684;SDS011;46836;48.388;16.210;2023-02-18T15:09:48;1.00;;;0.90;;
45684;SDS011;46836;48.388;16.210;2023-02-18T15:12:19;0.83;;;0.83;;
45684;SDS011;46836;48.388;16.210;2023-02-18T15:14:51;2.30;;;0.80;;
45684;SDS011;46836;48.388;16.210;2023-02-18T15:17:22;0.80;;;0.70;;
45684;SDS011;46836;48.388;16.210;2023-02-18T15:19:54;1.60;;;1.10;;
45684;SDS011;46836;48.388;16.210;2023-02-18T15:22:24;0.80;;;0.60;;
45684;SDS011;46836;48.388;16.210;2023-02-18T15:24:57;0.80;;;0.70;;
45684;SDS011;46836;48.388;16.210;2023-02-18T15:27:28;1.10;;;0.77;;
45684;SDS011;46836;48.388;16.210;2023-02-18T15:30:02;2.13;;;0.60;;
45684;SDS011;46836;48.388;16.210;2023-02-18T15:32:44;0.87;;;0.87;;
45684;SDS011;46836;48.388;16.210;2023-02-18T15:35:20;1.07;;;0.70;;
45684;SDS011;46836;48.388;16.210;2023-02-18T15:37:53;1.00;;;0.90;;
45684;SDS011;46836;48.388;16.210;2023-02-18T15:40:23;1.02;;;0.70;;
45684;SDS011;46836;48.388;16.210;2023-02-18T15:42:56;1.40;;;1.00;;
45684;SDS011;46836;48.388;16.210;2023-02-18T15:45:30;0.80;;;0.70;;
45684;SDS011;46836;48.388;16.210;2023-02-18T15:48:04;1.83;;;0.60;;
45684;SDS011;46836;48.388;16.210;2023-02-18T15:50:33;1.23;;;0.90;;
45684;SDS011;46836;48.388;16.210;2023-02-18T15:53:04;1.67;;;1.00;;
45684;SDS011;46836;48.388;16.210;2023-02-18T15:55:41;0.80;;;0.50;;
45684;SDS011;46836;48.388;16.210;2023-02-18T15:58:16;0.70;;;0.70;;
45684;SDS011;46836;48.388;16.210;2023-02-18T16:00:56;2.77;;;0.83;;
45684;SDS011;46836;48.388;16.210;2023-02-18T16:03:28;4.43;;;0.80;;
45684;SDS011;46836;48.388;16.210;2023-02-18T16:06:11;0.70;;;0.50;;
45684;SDS011;46836;48.388;16.210;2023-02-18T16:08:54;0.65;;;0.65;;
45684;SDS011;46836;48.388;16.210;2023-02-18T16:11:28;2.15;;;1.00;;
45684;SDS011;46836;48.388;16.210;2023-02-18T16:14:00;1.27;;;0.80;;
45684;SDS011;46836;48.388;16.210;2023-02-18T16:16:29;0.65;;;0.50;;
45684;SDS011;46836;48.388;16.210;2023-02-18T16:18:59;1.00;;;0.90;;
45684;SDS011;46836;48.388;16.210;2023-02-18T16:21:42;1.50;;;0.98;;
45684;SDS011;46836;48.388;16.210;2023-02-18T16:24:23;1.35;;;0.80;;
45684;SDS011;46836;48.388;16.210;2023-02-18T16:26:55;0.70;;;0.70;;
45684;SDS011;46836;48.388;16.210;2023-02-18T16:31:59;1.27;;;0.90;;
45684;SDS011;46836;48.388;16.210;2023-02-18T16:34:27;1.33;;;0.85;;
45684;SDS011;46836;48.388;16.210;2023-02-18T16:36:56;1.23;;;0.80;;
45684;SDS011;46836;48.388;16.210;2023-02-18T16:39:41;1.30;;;0.80;;
45684;SDS011;46836;48.388;16.210;2023-02-18T16:42:09;1.30;;;0.73;;
45684;SDS011;46836;48.388;16.210;2023-02-18T16:44:37;0.70;;;0.52;;
45684;SDS011;46836;48.388;16.210;2023-02-18T16:47:10;0.85;;;0.80;;
45684;SDS011;46836;48.388;16.210;2023-02-18T16:49:45;0.93;;;0.80;;
45684;SDS011;46836;48.388;16.210;2023-02-18T16:52:15;0.97;;;0.80;;
45684;SDS011;46836;48.388;16.210;2023-02-18T16:54:44;2.28;;;1.25;;
45684;SDS011;46836;48.388;16.210;2023-02-18T16:57:14;1.58;;;1.00;;
45684;SDS011;46836;48.388;16.210;2023-02-18T16:59:41;0.90;;;0.80;;
45684;SDS011;46836;48.388;16.210;2023-02-18T17:02:13;0.82;;;0.77;;
45684;SDS011;46836;48.388;16.210;2023-02-18T17:04:44;2.08;;;1.00;;
45684;SDS011;46836;48.388;16.210;2023-02-18T17:07:13;0.68;;;0.63;;
45684;SDS011;46836;48.388;16.210;2023-02-18T17:09:43;0.88;;;0.70;;
45684;SDS011;46836;48.388;16.210;2023-02-18T17:12:12;7.93;;;1.00;;
45684;SDS011;46836;48.388;16.210;2023-02-18T17:14:39;1.48;;;0.80;;
45684;SDS011;46836;48.388;16.210;2023-02-18T17:17:09;1.48;;;0.80;;
45684;SDS011;46836;48.388;16.210;2023-02-18T17:19:40;0.70;;;0.70;;
45684;SDS011;46836;48.388;16.210;2023-02-18T17:22:11;1.63;;;1.20;;
45684;SDS011;46836;48.388;16.210;2023-02-18T17:24:39;1.50;;;1.30;;